Macon, Virginia
Current Conditions -  °F | °C
As of 12:15 PM on Sunday 21 Dec 2014 (Local Time) from KW81 Reporting Station
Overcast Overcast  
Wind Chill: 41°   Ceiling: 6500
Heat Index: 41°   Visibility: 10mi
Dew Point: 27°   Wind: 0mph
Humidity: 56%   Direction: NA
Pressure: 30.31"   Gusts: NA
Location:  37.52°N, 77.96°W
Report Text: KW81 211715Z AUTO 00000KT 10SM OVC065 05/M03 A3031 RMK AO1 T00521030
Loading
Personal Weather Stations






























Interactive Weather Map New forecast layout! Learn more

10-Day Weather Forecast

Advertisements
Track Severe Weather on mobile